sensor_id;sensor_type;location;lat;lon;timestamp;temperature;humidity
66728;DHT22;53641;44.274;19.890;2023-02-01T00:00:49;5.60;99.90
66728;DHT22;53641;44.274;19.890;2023-02-01T00:03:15;5.60;99.90
66728;DHT22;53641;44.274;19.890;2023-02-01T00:05:40;5.60;99.90
66728;DHT22;53641;44.274;19.890;2023-02-01T00:08:06;5.70;99.90
66728;DHT22;53641;44.274;19.890;2023-02-01T00:10:32;5.70;99.90
66728;DHT22;53641;44.274;19.890;2023-02-01T00:12:57;5.70;99.90
66728;DHT22;53641;44.274;19.890;2023-02-01T00:15:23;5.70;99.90
66728;DHT22;53641;44.274;19.890;2023-02-01T00:17:55;5.90;99.90
66728;DHT22;53641;44.274;19.890;2023-02-01T00:20:20;5.80;99.90
66728;DHT22;53641;44.274;19.890;2023-02-01T00:22:46;5.70;99.40
66728;DHT22;53641;44.274;19.890;2023-02-01T00:25:12;5.70;99.90
66728;DHT22;53641;44.274;19.890;2023-02-01T00:27:37;5.70;99.90
66728;DHT22;53641;44.274;19.890;2023-02-01T00:30:03;5.70;99.90
66728;DHT22;53641;44.274;19.890;2023-02-01T00:32:29;5.70;99.90
66728;DHT22;53641;44.274;19.890;2023-02-01T00:34:57;5.80;99.90
66728;DHT22;53641;44.274;19.890;2023-02-01T00:37:22;5.80;99.60
66728;DHT22;53641;44.274;19.890;2023-02-01T00:39:48;5.80;99.90
66728;DHT22;53641;44.274;19.890;2023-02-01T00:42:14;5.90;99.90
66728;DHT22;53641;44.274;19.890;2023-02-01T00:44:40;5.90;99.90
66728;DHT22;53641;44.274;19.890;2023-02-01T00:47:06;5.90;99.90
66728;DHT22;53641;44.274;19.890;2023-02-01T00:49:31;5.80;99.90
66728;DHT22;53641;44.274;19.890;2023-02-01T00:51:57;5.80;99.90
66728;DHT22;53641;44.274;19.890;2023-02-01T00:54:23;5.90;99.90
66728;DHT22;53641;44.274;19.890;2023-02-01T00:56:49;5.80;99.90
66728;DHT22;53641;44.274;19.890;2023-02-01T00:59:15;5.80;99.90
66728;DHT22;53641;44.274;19.890;2023-02-01T01:01:41;5.70;99.90
66728;DHT22;53641;44.274;19.890;2023-02-01T01:04:06;5.70;99.90
66728;DHT22;53641;44.274;19.890;2023-02-01T01:06:32;5.70;99.90
66728;DHT22;53641;44.274;19.890;2023-02-01T01:08:59;5.60;99.90
66728;DHT22;53641;44.274;19.890;2023-02-01T01:11:26;5.60;99.90
66728;DHT22;53641;44.274;19.890;2023-02-01T01:13:52;5.60;99.90
66728;DHT22;53641;44.274;19.890;2023-02-01T01:16:19;5.60;99.90
66728;DHT22;53641;44.274;19.890;2023-02-01T01:18:46;5.60;99.90
66728;DHT22;53641;44.274;19.890;2023-02-01T01:21:12;5.70;99.90
66728;DHT22;53641;44.274;19.890;2023-02-01T01:23:38;5.70;99.90
66728;DHT22;53641;44.274;19.890;2023-02-01T01:26:05;5.70;99.90
66728;DHT22;53641;44.274;19.890;2023-02-01T01:28:31;5.60;99.90
66728;DHT22;53641;44.274;19.890;2023-02-01T01:30:57;5.60;99.90
66728;DHT22;53641;44.274;19.890;2023-02-01T01:33:23;5.70;99.90
66728;DHT22;53641;44.274;19.890;2023-02-01T01:35:49;5.70;99.90
66728;DHT22;53641;44.274;19.890;2023-02-01T01:38:14;5.60;99.90
66728;DHT22;53641;44.274;19.890;2023-02-01T01:40:44;5.50;99.90
66728;DHT22;53641;44.274;19.890;2023-02-01T01:43:14;5.60;99.90
66728;DHT22;53641;44.274;19.890;2023-02-01T01:45:40;5.50;99.90
66728;DHT22;53641;44.274;19.890;2023-02-01T01:48:21;5.50;99.90
66728;DHT22;53641;44.274;19.890;2023-02-01T01:50:56;5.40;99.90
66728;DHT22;53641;44.274;19.890;2023-02-01T01:53:24;5.40;99.90
66728;DHT22;53641;44.274;19.890;2023-02-01T01:55:51;5.50;99.90
66728;DHT22;53641;44.274;19.890;2023-02-01T01:58:19;5.30;99.90
66728;DHT22;53641;44.274;19.890;2023-02-01T02:00:46;5.30;99.90
66728;DHT22;53641;44.274;19.890;2023-02-01T02:03:18;5.30;99.90
66728;DHT22;53641;44.274;19.890;2023-02-01T02:05:45;5.20;99.90
66728;DHT22;53641;44.274;19.890;2023-02-01T02:08:11;5.20;99.90
66728;DHT22;53641;44.274;19.890;2023-02-01T02:10:37;5.10;99.90
66728;DHT22;53641;44.274;19.890;2023-02-01T02:13:22;5.00;99.90
66728;DHT22;53641;44.274;19.890;2023-02-01T02:15:52;4.90;99.90
66728;DHT22;53641;44.274;19.890;2023-02-01T02:18:27;4.80;99.90
66728;DHT22;53641;44.274;19.890;2023-02-01T02:22:35;4.70;99.90
66728;DHT22;53641;44.274;19.890;2023-02-01T02:26:45;4.70;99.90
66728;DHT22;53641;44.274;19.890;2023-02-01T02:29:19;4.60;99.90
66728;DHT22;53641;44.274;19.890;2023-02-01T02:31:55;4.50;99.90
66728;DHT22;53641;44.274;19.890;2023-02-01T02:34:34;4.40;99.90
66728;DHT22;53641;44.274;19.890;2023-02-01T02:37:07;4.30;99.90
66728;DHT22;53641;44.274;19.890;2023-02-01T02:40:19;4.30;99.90
66728;DHT22;53641;44.274;19.890;2023-02-01T02:42:35;4.20;99.90
66728;DHT22;53641;44.274;19.890;2023-02-01T02:45:26;4.10;99.90
66728;DHT22;53641;44.274;19.890;2023-02-01T02:48:17;4.20;99.90
66728;DHT22;53641;44.274;19.890;2023-02-01T02:50:46;4.10;99.90
66728;DHT22;53641;44.274;19.890;2023-02-01T02:53:43;4.20;99.90
66728;DHT22;53641;44.274;19.890;2023-02-01T02:56:32;4.20;99.90
66728;DHT22;53641;44.274;19.890;2023-02-01T02:59:19;4.10;99.90
66728;DHT22;53641;44.274;19.890;2023-02-01T03:02:06;4.30;99.90
66728;DHT22;53641;44.274;19.890;2023-02-01T03:04:53;4.20;99.90
66728;DHT22;53641;44.274;19.890;2023-02-01T03:08:21;4.30;99.90
66728;DHT22;53641;44.274;19.890;2023-02-01T03:10:07;4.20;99.90
66728;DHT22;53641;44.274;19.890;2023-02-01T03:12:36;4.20;99.90
66728;DHT22;53641;44.274;19.890;2023-02-01T03:15:24;4.10;99.90
66728;DHT22;53641;44.274;19.890;2023-02-01T03:17:51;4.10;99.90
66728;DHT22;53641;44.274;19.890;2023-02-01T03:20:20;4.10;99.90
66728;DHT22;53641;44.274;19.890;2023-02-01T03:22:47;4.00;99.90
66728;DHT22;53641;44.274;19.890;2023-02-01T03:25:16;3.90;99.90
66728;DHT22;53641;44.274;19.890;2023-02-01T03:27:48;3.90;99.90
66728;DHT22;53641;44.274;19.890;2023-02-01T03:30:21;3.90;99.90
66728;DHT22;53641;44.274;19.890;2023-02-01T03:32:48;3.90;99.90
66728;DHT22;53641;44.274;19.890;2023-02-01T03:35:29;3.90;99.90
66728;DHT22;53641;44.274;19.890;2023-02-01T03:37:56;3.90;99.90
66728;DHT22;53641;44.274;19.890;2023-02-01T03:40:26;3.90;99.90
66728;DHT22;53641;44.274;19.890;2023-02-01T03:42:54;3.90;99.90
66728;DHT22;53641;44.274;19.890;2023-02-01T03:45:23;3.90;99.90
66728;DHT22;53641;44.274;19.890;2023-02-01T03:47:50;3.90;99.90
66728;DHT22;53641;44.274;19.890;2023-02-01T03:50:21;3.80;99.90
66728;DHT22;53641;44.274;19.890;2023-02-01T03:52:58;3.80;99.90
66728;DHT22;53641;44.274;19.890;2023-02-01T03:55:26;3.80;99.90
66728;DHT22;53641;44.274;19.890;2023-02-01T03:57:53;3.70;99.90
66728;DHT22;53641;44.274;19.890;2023-02-01T04:00:21;3.70;99.90
66728;DHT22;53641;44.274;19.890;2023-02-01T04:02:48;3.70;99.90
66728;DHT22;53641;44.274;19.890;2023-02-01T04:05:13;3.70;99.90
66728;DHT22;53641;44.274;19.890;2023-02-01T04:07:39;3.70;99.90
66728;DHT22;53641;44.274;19.890;2023-02-01T04:10:05;3.70;99.90
66728;DHT22;53641;44.274;19.890;2023-02-01T04:12:31;3.70;99.90
66728;DHT22;53641;44.274;19.890;2023-02-01T04:14:56;3.70;99.90
66728;DHT22;53641;44.274;19.890;2023-02-01T04:17:23;3.80;99.90
66728;DHT22;53641;44.274;19.890;2023-02-01T04:19:49;3.80;99.90
66728;DHT22;53641;44.274;19.890;2023-02-01T04:22:15;3.90;99.90
66728;DHT22;53641;44.274;19.890;2023-02-01T04:24:40;3.80;99.90
66728;DHT22;53641;44.274;19.890;2023-02-01T04:27:06;3.80;99.90
66728;DHT22;53641;44.274;19.890;2023-02-01T04:29:32;3.80;99.90
66728;DHT22;53641;44.274;19.890;2023-02-01T04:31:57;3.60;99.90
66728;DHT22;53641;44.274;19.890;2023-02-01T04:34:23;3.60;99.90
66728;DHT22;53641;44.274;19.890;2023-02-01T04:36:50;3.50;99.90
66728;DHT22;53641;44.274;19.890;2023-02-01T04:39:16;3.60;99.90
66728;DHT22;53641;44.274;19.890;2023-02-01T04:41:41;3.60;99.90
66728;DHT22;53641;44.274;19.890;2023-02-01T04:44:09;3.60;99.90
66728;DHT22;53641;44.274;19.890;2023-02-01T04:46:38;3.60;99.90
66728;DHT22;53641;44.274;19.890;2023-02-01T04:49:03;3.60;99.90
66728;DHT22;53641;44.274;19.890;2023-02-01T04:51:29;3.70;99.90
66728;DHT22;53641;44.274;19.890;2023-02-01T04:53:55;3.80;99.90
66728;DHT22;53641;44.274;19.890;2023-02-01T04:56:21;3.90;99.90
66728;DHT22;53641;44.274;19.890;2023-02-01T04:58:47;3.90;99.90
66728;DHT22;53641;44.274;19.890;2023-02-01T05:01:13;3.90;99.90
66728;DHT22;53641;44.274;19.890;2023-02-01T05:03:38;4.00;99.90
66728;DHT22;53641;44.274;19.890;2023-02-01T05:06:04;4.10;99.90
66728;DHT22;53641;44.274;19.890;2023-02-01T05:08:30;4.20;99.90
66728;DHT22;53641;44.274;19.890;2023-02-01T05:10:56;4.20;99.90
66728;DHT22;53641;44.274;19.890;2023-02-01T05:13:22;4.30;99.90
66728;DHT22;53641;44.274;19.890;2023-02-01T05:16:07;4.20;99.90
66728;DHT22;53641;44.274;19.890;2023-02-01T05:18:33;4.20;99.90
66728;DHT22;53641;44.274;19.890;2023-02-01T05:20:59;4.30;99.90
66728;DHT22;53641;44.274;19.890;2023-02-01T05:23:24;4.30;99.90
66728;DHT22;53641;44.274;19.890;2023-02-01T05:25:50;4.30;99.90
66728;DHT22;53641;44.274;19.890;2023-02-01T05:28:16;4.30;99.90
66728;DHT22;53641;44.274;19.890;2023-02-01T05:30:41;4.30;99.90
66728;DHT22;53641;44.274;19.890;2023-02-01T05:33:07;4.40;99.90
66728;DHT22;53641;44.274;19.890;2023-02-01T05:35:33;4.40;99.90
66728;DHT22;53641;44.274;19.890;2023-02-01T05:37:58;4.40;99.90
66728;DHT22;53641;44.274;19.890;2023-02-01T05:40:24;4.40;99.90
66728;DHT22;53641;44.274;19.890;2023-02-01T05:42:50;4.40;99.90
66728;DHT22;53641;44.274;19.890;2023-02-01T05:45:34;4.50;99.90
66728;DHT22;53641;44.274;19.890;2023-02-01T05:48:00;4.50;99.90
66728;DHT22;53641;44.274;19.890;2023-02-01T05:50:25;4.60;99.90
66728;DHT22;53641;44.274;19.890;2023-02-01T05:52:51;4.60;99.90
66728;DHT22;53641;44.274;19.890;2023-02-01T05:55:17;4.60;99.90
66728;DHT22;53641;44.274;19.890;2023-02-01T05:57:42;4.70;99.90
66728;DHT22;53641;44.274;19.890;2023-02-01T06:00:08;4.70;99.90
66728;DHT22;53641;44.274;19.890;2023-02-01T06:02:34;4.80;99.90
66728;DHT22;53641;44.274;19.890;2023-02-01T06:05:00;4.80;99.90
66728;DHT22;53641;44.274;19.890;2023-02-01T06:07:25;4.80;99.90
66728;DHT22;53641;44.274;19.890;2023-02-01T06:09:51;4.80;99.90
66728;DHT22;53641;44.274;19.890;2023-02-01T06:12:17;4.90;99.90
66728;DHT22;53641;44.274;19.890;2023-02-01T06:14:42;4.90;99.90
66728;DHT22;53641;44.274;19.890;2023-02-01T06:17:08;4.90;99.90
66728;DHT22;53641;44.274;19.890;2023-02-01T06:19:34;5.00;99.40
66728;DHT22;53641;44.274;19.890;2023-02-01T06:22:00;5.10;98.30
66728;DHT22;53641;44.274;19.890;2023-02-01T06:24:25;5.10;99.40
66728;DHT22;53641;44.274;19.890;2023-02-01T06:26:51;5.10;99.90
66728;DHT22;53641;44.274;19.890;2023-02-01T06:29:17;5.10;99.90
66728;DHT22;53641;44.274;19.890;2023-02-01T06:31:42;5.00;99.90
66728;DHT22;53641;44.274;19.890;2023-02-01T06:34:08;4.90;99.90
66728;DHT22;53641;44.274;19.890;2023-02-01T06:36:34;4.90;99.90
66728;DHT22;53641;44.274;19.890;2023-02-01T06:39:01;4.90;99.90
66728;DHT22;53641;44.274;19.890;2023-02-01T06:41:26;5.10;99.90
66728;DHT22;53641;44.274;19.890;2023-02-01T06:43:55;5.20;99.50
66728;DHT22;53641;44.274;19.890;2023-02-01T06:46:21;5.40;99.90
66728;DHT22;53641;44.274;19.890;2023-02-01T06:48:46;5.50;99.90
66728;DHT22;53641;44.274;19.890;2023-02-01T06:51:20;5.60;99.10
66728;DHT22;53641;44.274;19.890;2023-02-01T06:53:46;5.80;95.40
66728;DHT22;53641;44.274;19.890;2023-02-01T06:56:12;6.00;94.90
66728;DHT22;53641;44.274;19.890;2023-02-01T06:58:38;6.10;92.80
66728;DHT22;53641;44.274;19.890;2023-02-01T07:01:05;6.30;92.90
66728;DHT22;53641;44.274;19.890;2023-02-01T07:03:31;6.50;91.70
66728;DHT22;53641;44.274;19.890;2023-02-01T07:05:56;6.50;91.10
66728;DHT22;53641;44.274;19.890;2023-02-01T07:08:29;6.70;91.70
66728;DHT22;53641;44.274;19.890;2023-02-01T07:10:55;6.80;91.90
66728;DHT22;53641;44.274;19.890;2023-02-01T07:13:21;6.90;91.00
66728;DHT22;53641;44.274;19.890;2023-02-01T07:15:47;6.90;90.40
66728;DHT22;53641;44.274;19.890;2023-02-01T07:18:13;7.10;89.00
66728;DHT22;53641;44.274;19.890;2023-02-01T07:20:39;7.10;86.90
66728;DHT22;53641;44.274;19.890;2023-02-01T07:23:05;7.30;85.70
66728;DHT22;53641;44.274;19.890;2023-02-01T07:25:31;7.40;83.60
66728;DHT22;53641;44.274;19.890;2023-02-01T07:27:57;7.50;83.30
66728;DHT22;53641;44.274;19.890;2023-02-01T07:30:23;7.60;87.30
66728;DHT22;53641;44.274;19.890;2023-02-01T07:32:51;7.60;88.40
66728;DHT22;53641;44.274;19.890;2023-02-01T07:35:16;7.70;89.10
66728;DHT22;53641;44.274;19.890;2023-02-01T07:37:42;7.80;88.70
66728;DHT22;53641;44.274;19.890;2023-02-01T07:40:08;7.90;88.30
66728;DHT22;53641;44.274;19.890;2023-02-01T07:42:34;8.00;88.00
66728;DHT22;53641;44.274;19.890;2023-02-01T07:45:00;8.00;87.20
66728;DHT22;53641;44.274;19.890;2023-02-01T07:47:26;8.00;86.00
66728;DHT22;53641;44.274;19.890;2023-02-01T07:49:52;8.10;87.20
66728;DHT22;53641;44.274;19.890;2023-02-01T07:52:17;8.10;86.70
66728;DHT22;53641;44.274;19.890;2023-02-01T07:54:43;8.10;84.40
66728;DHT22;53641;44.274;19.890;2023-02-01T07:57:09;8.20;84.40
66728;DHT22;53641;44.274;19.890;2023-02-01T07:59:36;8.20;85.60
66728;DHT22;53641;44.274;19.890;2023-02-01T08:02:22;8.30;84.10
66728;DHT22;53641;44.274;19.890;2023-02-01T08:04:57;8.50;82.70
66728;DHT22;53641;44.274;19.890;2023-02-01T08:07:22;8.80;82.30
66728;DHT22;53641;44.274;19.890;2023-02-01T08:09:49;9.10;81.00
66728;DHT22;53641;44.274;19.890;2023-02-01T08:12:15;9.20;79.10
66728;DHT22;53641;44.274;19.890;2023-02-01T08:14:40;9.20;80.40
66728;DHT22;53641;44.274;19.890;2023-02-01T08:17:06;9.50;80.20
66728;DHT22;53641;44.274;19.890;2023-02-01T08:19:32;10.00;78.70
66728;DHT22;53641;44.274;19.890;2023-02-01T08:21:58;10.50;77.70
66728;DHT22;53641;44.274;19.890;2023-02-01T08:24:24;10.80;76.90
66728;DHT22;53641;44.274;19.890;2023-02-01T08:26:50;10.90;73.80
66728;DHT22;53641;44.274;19.890;2023-02-01T08:29:16;10.80;73.80
66728;DHT22;53641;44.274;19.890;2023-02-01T08:31:41;10.80;73.60
66728;DHT22;53641;44.274;19.890;2023-02-01T08:34:08;11.10;73.70
66728;DHT22;53641;44.274;19.890;2023-02-01T08:36:34;11.40;72.50
66728;DHT22;53641;44.274;19.890;2023-02-01T08:39:00;11.50;71.20
66728;DHT22;53641;44.274;19.890;2023-02-01T08:41:27;11.70;70.80
66728;DHT22;53641;44.274;19.890;2023-02-01T08:43:54;12.00;71.20
66728;DHT22;53641;44.274;19.890;2023-02-01T08:46:25;12.30;70.40
66728;DHT22;53641;44.274;19.890;2023-02-01T08:48:57;12.50;70.50
66728;DHT22;53641;44.274;19.890;2023-02-01T08:51:23;12.40;69.30
66728;DHT22;53641;44.274;19.890;2023-02-01T08:53:49;12.50;68.30
66728;DHT22;53641;44.274;19.890;2023-02-01T08:56:15;12.90;69.30
66728;DHT22;53641;44.274;19.890;2023-02-01T08:58:44;12.90;92.00
66728;DHT22;53641;44.274;19.890;2023-02-01T09:01:11;12.80;92.00
66728;DHT22;53641;44.274;19.890;2023-02-01T09:03:37;12.90;91.80
66728;DHT22;53641;44.274;19.890;2023-02-01T09:06:04;13.30;91.60
66728;DHT22;53641;44.274;19.890;2023-02-01T09:08:30;13.60;91.50
66728;DHT22;53641;44.274;19.890;2023-02-01T09:10:59;14.10;91.30
66728;DHT22;53641;44.274;19.890;2023-02-01T09:13:25;14.20;90.50
66728;DHT22;53641;44.274;19.890;2023-02-01T09:15:51;14.40;90.60
66728;DHT22;53641;44.274;19.890;2023-02-01T09:18:17;14.20;90.20
66728;DHT22;53641;44.274;19.890;2023-02-01T09:20:45;14.10;90.50
66728;DHT22;53641;44.274;19.890;2023-02-01T09:23:11;14.10;90.40
66728;DHT22;53641;44.274;19.890;2023-02-01T09:25:37;14.10;91.50
66728;DHT22;53641;44.274;19.890;2023-02-01T09:28:03;14.10;90.30
66728;DHT22;53641;44.274;19.890;2023-02-01T09:30:31;14.20;88.90
66728;DHT22;53641;44.274;19.890;2023-02-01T09:32:57;14.30;89.00
66728;DHT22;53641;44.274;19.890;2023-02-01T09:35:23;14.30;87.70
66728;DHT22;53641;44.274;19.890;2023-02-01T09:37:48;14.30;87.70
66728;DHT22;53641;44.274;19.890;2023-02-01T09:40:15;14.30;87.50
66728;DHT22;53641;44.274;19.890;2023-02-01T09:42:48;14.40;86.90
66728;DHT22;53641;44.274;19.890;2023-02-01T09:48:02;14.40;87.80
66728;DHT22;53641;44.274;19.890;2023-02-01T10:05:10;14.10;87.20
66728;DHT22;53641;44.274;19.890;2023-02-01T10:32:20;12.60;58.70
66728;DHT22;53641;44.274;19.890;2023-02-01T10:34:48;12.20;59.90
66728;DHT22;53641;44.274;19.890;2023-02-01T10:37:22;12.00;59.60
66728;DHT22;53641;44.274;19.890;2023-02-01T10:39:48;12.00;59.00
66728;DHT22;53641;44.274;19.890;2023-02-01T10:42:16;11.90;59.60
66728;DHT22;53641;44.274;19.890;2023-02-01T10:44:44;11.70;59.80
66728;DHT22;53641;44.274;19.890;2023-02-01T10:47:12;11.60;59.10
66728;DHT22;53641;44.274;19.890;2023-02-01T10:49:38;11.60;59.20
66728;DHT22;53641;44.274;19.890;2023-02-01T10:52:13;11.60;60.00
66728;DHT22;53641;44.274;19.890;2023-02-01T10:54:40;11.60;60.10
66728;DHT22;53641;44.274;19.890;2023-02-01T10:57:08;11.50;60.00
66728;DHT22;53641;44.274;19.890;2023-02-01T10:59:34;11.30;59.90
66728;DHT22;53641;44.274;19.890;2023-02-01T11:02:05;11.30;60.10
66728;DHT22;53641;44.274;19.890;2023-02-01T11:05:04;11.30;59.70
66728;DHT22;53641;44.274;19.890;2023-02-01T11:07:30;11.20;62.40
66728;DHT22;53641;44.274;19.890;2023-02-01T11:09:56;11.00;63.00
66728;DHT22;53641;44.274;19.890;2023-02-01T11:12:26;10.90;65.00
66728;DHT22;53641;44.274;19.890;2023-02-01T11:14:56;10.70;64.90
66728;DHT22;53641;44.274;19.890;2023-02-01T11:17:32;10.60;65.80
66728;DHT22;53641;44.274;19.890;2023-02-01T11:20:06;10.40;65.10
66728;DHT22;53641;44.274;19.890;2023-02-01T11:22:37;10.30;65.80
66728;DHT22;53641;44.274;19.890;2023-02-01T11:25:13;10.30;66.80
66728;DHT22;53641;44.274;19.890;2023-02-01T11:27:41;10.30;66.70
66728;DHT22;53641;44.274;19.890;2023-02-01T11:30:07;10.20;67.50
66728;DHT22;53641;44.274;19.890;2023-02-01T11:32:34;10.20;67.00
66728;DHT22;53641;44.274;19.890;2023-02-01T11:35:01;10.10;66.70
66728;DHT22;53641;44.274;19.890;2023-02-01T11:37:30;10.30;69.00
66728;DHT22;53641;44.274;19.890;2023-02-01T11:39:57;10.40;67.50
66728;DHT22;53641;44.274;19.890;2023-02-01T11:42:24;10.40;66.80
66728;DHT22;53641;44.274;19.890;2023-02-01T11:44:50;10.40;66.20
66728;DHT22;53641;44.274;19.890;2023-02-01T11:47:19;10.40;66.10
66728;DHT22;53641;44.274;19.890;2023-02-01T11:49:46;10.40;65.40
66728;DHT22;53641;44.274;19.890;2023-02-01T11:52:17;10.50;66.20
66728;DHT22;53641;44.274;19.890;2023-02-01T11:54:54;10.60;67.20
66728;DHT22;53641;44.274;19.890;2023-02-01T11:57:49;10.80;67.00
66728;DHT22;53641;44.274;19.890;2023-02-01T12:00:35;10.90;66.20
66728;DHT22;53641;44.274;19.890;2023-02-01T12:03:24;11.00;65.30
66728;DHT22;53641;44.274;19.890;2023-02-01T12:07:22;11.20;65.20
66728;DHT22;53641;44.274;19.890;2023-02-01T12:09:12;11.40;64.90
66728;DHT22;53641;44.274;19.890;2023-02-01T12:11:53;11.60;65.00
66728;DHT22;53641;44.274;19.890;2023-02-01T12:15:50;11.80;64.30
66728;DHT22;53641;44.274;19.890;2023-02-01T12:17:19;11.80;64.30
66728;DHT22;53641;44.274;19.890;2023-02-01T12:22:39;11.90;64.30
66728;DHT22;53641;44.274;19.890;2023-02-01T12:25:51;12.10;64.20
66728;DHT22;53641;44.274;19.890;2023-02-01T12:28:04;12.20;63.70
66728;DHT22;53641;44.274;19.890;2023-02-01T12:30:35;12.20;63.70
66728;DHT22;53641;44.274;19.890;2023-02-01T12:33:17;12.30;63.30
66728;DHT22;53641;44.274;19.890;2023-02-01T12:35:49;12.20;63.30
66728;DHT22;53641;44.274;19.890;2023-02-01T12:38:44;12.30;63.10
66728;DHT22;53641;44.274;19.890;2023-02-01T12:42:09;12.30;63.50
66728;DHT22;53641;44.274;19.890;2023-02-01T12:43:57;12.40;64.00
66728;DHT22;53641;44.274;19.890;2023-02-01T12:46:27;12.40;63.70
66728;DHT22;53641;44.274;19.890;2023-02-01T12:48:59;12.40;63.80
66728;DHT22;53641;44.274;19.890;2023-02-01T12:51:31;12.40;63.60
66728;DHT22;53641;44.274;19.890;2023-02-01T12:54:19;12.40;63.70
66728;DHT22;53641;44.274;19.890;2023-02-01T12:56:48;12.30;63.30
66728;DHT22;53641;44.274;19.890;2023-02-01T12:59:27;12.00;64.30
66728;DHT22;53641;44.274;19.890;2023-02-01T13:01:55;12.00;64.50
66728;DHT22;53641;44.274;19.890;2023-02-01T13:04:34;12.10;64.60
66728;DHT22;53641;44.274;19.890;2023-02-01T13:07:04;12.10;63.90
66728;DHT22;53641;44.274;19.890;2023-02-01T13:09:43;12.00;64.10
66728;DHT22;53641;44.274;19.890;2023-02-01T13:12:19;12.00;64.60
66728;DHT22;53641;44.274;19.890;2023-02-01T13:14:59;12.00;64.30
66728;DHT22;53641;44.274;19.890;2023-02-01T13:17:29;12.00;65.20
66728;DHT22;53641;44.274;19.890;2023-02-01T13:19:59;12.00;64.60
66728;DHT22;53641;44.274;19.890;2023-02-01T13:22:28;12.00;64.70
66728;DHT22;53641;44.274;19.890;2023-02-01T13:25:12;12.10;65.30
66728;DHT22;53641;44.274;19.890;2023-02-01T13:27:38;12.10;65.70
66728;DHT22;53641;44.274;19.890;2023-02-01T13:30:21;11.90;65.90
66728;DHT22;53641;44.274;19.890;2023-02-01T13:32:59;11.70;65.20
66728;DHT22;53641;44.274;19.890;2023-02-01T13:38:30;11.30;67.20
66728;DHT22;53641;44.274;19.890;2023-02-01T13:41:06;11.30;67.00
66728;DHT22;53641;44.274;19.890;2023-02-01T13:43:32;11.40;67.50
66728;DHT22;53641;44.274;19.890;2023-02-01T13:46:05;11.40;66.40
66728;DHT22;53641;44.274;19.890;2023-02-01T13:48:51;11.40;67.20
66728;DHT22;53641;44.274;19.890;2023-02-01T13:51:28;11.50;67.50
66728;DHT22;53641;44.274;19.890;2023-02-01T13:53:57;11.50;67.00
66728;DHT22;53641;44.274;19.890;2023-02-01T13:56:23;11.60;66.60
66728;DHT22;53641;44.274;19.890;2023-02-01T13:58:50;11.70;66.10
66728;DHT22;53641;44.274;19.890;2023-02-01T14:01:33;11.80;66.10
66728;DHT22;53641;44.274;19.890;2023-02-01T14:04:01;11.80;66.10
66728;DHT22;53641;44.274;19.890;2023-02-01T14:09:14;11.80;66.60
66728;DHT22;53641;44.274;19.890;2023-02-01T14:11:49;11.90;66.30
66728;DHT22;53641;44.274;19.890;2023-02-01T14:17:29;11.80;67.00
66728;DHT22;53641;44.274;19.890;2023-02-01T14:19:50;11.70;67.20
66728;DHT22;53641;44.274;19.890;2023-02-01T14:22:35;11.80;66.60
66728;DHT22;53641;44.274;19.890;2023-02-01T14:25:01;11.80;67.10
66728;DHT22;53641;44.274;19.890;2023-02-01T14:27:28;11.70;67.30
66728;DHT22;53641;44.274;19.890;2023-02-01T14:29:58;11.60;66.30
66728;DHT22;53641;44.274;19.890;2023-02-01T14:32:26;11.40;66.70
66728;DHT22;53641;44.274;19.890;2023-02-01T14:34:56;11.30;66.80
66728;DHT22;53641;44.274;19.890;2023-02-01T14:37:26;11.20;69.50
66728;DHT22;53641;44.274;19.890;2023-02-01T14:40:04;11.20;68.50
66728;DHT22;53641;44.274;19.890;2023-02-01T14:42:53;11.20;68.60
66728;DHT22;53641;44.274;19.890;2023-02-01T14:50:57;11.40;68.90
66728;DHT22;53641;44.274;19.890;2023-02-01T14:53:25;11.40;69.60
66728;DHT22;53641;44.274;19.890;2023-02-01T14:55:56;11.40;71.10
66728;DHT22;53641;44.274;19.890;2023-02-01T14:58:44;11.40;69.30
66728;DHT22;53641;44.274;19.890;2023-02-01T15:01:18;11.30;70.20
66728;DHT22;53641;44.274;19.890;2023-02-01T15:03:53;11.20;71.30
66728;DHT22;53641;44.274;19.890;2023-02-01T15:06:22;11.10;71.50
66728;DHT22;53641;44.274;19.890;2023-02-01T15:08:48;11.10;72.30
66728;DHT22;53641;44.274;19.890;2023-02-01T15:11:15;11.00;70.60
66728;DHT22;53641;44.274;19.890;2023-02-01T15:13:47;11.00;71.60
66728;DHT22;53641;44.274;19.890;2023-02-01T15:16:14;10.90;71.90
66728;DHT22;53641;44.274;19.890;2023-02-01T15:18:40;10.80;71.90
66728;DHT22;53641;44.274;19.890;2023-02-01T15:21:06;10.80;72.60
66728;DHT22;53641;44.274;19.890;2023-02-01T15:23:32;10.80;71.90
66728;DHT22;53641;44.274;19.890;2023-02-01T15:25:58;10.70;72.20
66728;DHT22;53641;44.274;19.890;2023-02-01T15:28:25;10.70;72.40
66728;DHT22;53641;44.274;19.890;2023-02-01T15:30:55;10.60;72.60
66728;DHT22;53641;44.274;19.890;2023-02-01T15:33:21;10.50;73.10
66728;DHT22;53641;44.274;19.890;2023-02-01T15:35:47;10.50;74.40
66728;DHT22;53641;44.274;19.890;2023-02-01T15:38:21;10.40;73.30
66728;DHT22;53641;44.274;19.890;2023-02-01T15:40:57;10.40;75.80
66728;DHT22;53641;44.274;19.890;2023-02-01T15:43:24;10.30;76.50
66728;DHT22;53641;44.274;19.890;2023-02-01T15:45:50;10.30;76.20
66728;DHT22;53641;44.274;19.890;2023-02-01T15:48:24;10.20;75.70
66728;DHT22;53641;44.274;19.890;2023-02-01T15:50:52;10.10;76.80
66728;DHT22;53641;44.274;19.890;2023-02-01T15:53:19;10.10;76.20
66728;DHT22;53641;44.274;19.890;2023-02-01T15:55:45;10.00;77.10
66728;DHT22;53641;44.274;19.890;2023-02-01T15:58:17;9.90;77.70
66728;DHT22;53641;44.274;19.890;2023-02-01T16:00:44;9.90;78.50
66728;DHT22;53641;44.274;19.890;2023-02-01T16:03:26;9.90;79.90
66728;DHT22;53641;44.274;19.890;2023-02-01T16:05:56;10.00;79.80
66728;DHT22;53641;44.274;19.890;2023-02-01T16:08:24;9.90;79.60
66728;DHT22;53641;44.274;19.890;2023-02-01T16:10:54;9.80;80.90
66728;DHT22;53641;44.274;19.890;2023-02-01T16:13:20;9.80;81.70
66728;DHT22;53641;44.274;19.890;2023-02-01T16:15:46;9.80;81.80
66728;DHT22;53641;44.274;19.890;2023-02-01T16:18:12;9.70;84.50
66728;DHT22;53641;44.274;19.890;2023-02-01T16:20:39;9.70;86.70
66728;DHT22;53641;44.274;19.890;2023-02-01T16:23:05;9.60;87.40
66728;DHT22;53641;44.274;19.890;2023-02-01T16:25:31;9.60;89.10
66728;DHT22;53641;44.274;19.890;2023-02-01T16:27:57;9.50;89.90
66728;DHT22;53641;44.274;19.890;2023-02-01T16:30:23;9.50;90.50
66728;DHT22;53641;44.274;19.890;2023-02-01T16:32:53;9.50;91.20
66728;DHT22;53641;44.274;19.890;2023-02-01T16:35:30;9.40;91.60
66728;DHT22;53641;44.274;19.890;2023-02-01T16:38:01;9.40;92.10
66728;DHT22;53641;44.274;19.890;2023-02-01T16:40:27;9.40;92.80
66728;DHT22;53641;44.274;19.890;2023-02-01T16:42:53;9.30;92.80